Time;durP1;ratioP1;P1;durP2;ratioP2;P2;SDS_P1;SDS_P2;PMS_P1;PMS_P2;Temp;Humidity;BMP_temperature;BMP_pressure;BME280_temperature;BME280_humidity;BME280_pressure;Samples;Min_cycle;Max_cycle;Signal;HPM_P1;HPM_P2
2022/06/20 00:01:27;;;;;;;9.80;3.78;;;;;;;21.91;65.61;99000.69;12188948;19;20259;-81
2022/06/20 00:05:33;;;;;;;7.28;3.80;;;;;;;21.84;65.22;98995.63;12204553;19;20066;-84
2022/06/20 00:09:34;;;;;;;9.93;4.30;;;;;;;21.78;65.95;98983.00;12189971;19;20085;-83
2022/06/20 00:13:40;;;;;;;10.77;3.88;;;;;;;21.69;65.67;98985.06;12205292;19;20074;-84
2022/06/20 00:17:41;;;;;;;9.75;3.58;;;;;;;21.59;65.83;98973.13;12202185;19;20006;-83
2022/06/20 00:21:43;;;;;;;13.00;3.95;;;;;;;21.54;66.21;98975.31;12189661;19;20357;-85
2022/06/20 00:25:45;;;;;;;15.10;3.90;;;;;;;21.44;66.21;98970.09;12199570;19;20066;-83
2022/06/20 00:29:48;;;;;;;14.83;3.57;;;;;;;21.37;66.42;98959.44;12205239;19;20011;-84
2022/06/20 00:33:49;;;;;;;11.48;4.53;;;;;;;21.34;65.64;98957.28;12182057;19;20007;-85
2022/06/20 00:37:55;;;;;;;7.95;3.38;;;;;;;21.30;65.83;98961.97;12206995;19;20007;-83
2022/06/20 00:42:04;;;;;;;10.70;3.97;;;;;;;21.25;65.51;98957.38;12205021;19;20018;-83
2022/06/20 00:46:11;;;;;;;8.85;3.80;;;;;;;21.15;65.75;98941.78;12191022;19;20018;-84
2022/06/20 00:50:29;;;;;;;8.73;3.85;;;;;;;21.08;66.11;98955.50;12251216;19;20011;-84
2022/06/20 00:54:39;;;;;;;14.10;3.90;;;;;;;21.09;65.34;98953.53;12215656;19;20804;-83
2022/06/20 00:58:50;;;;;;;11.30;3.13;;;;;;;21.05;66.03;98960.97;12217727;19;20502;-83
2022/06/20 01:03:01;;;;;;;15.20;3.58;;;;;;;20.95;66.01;98965.00;12215094;19;20018;-85
2022/06/20 01:07:07;;;;;;;8.75;3.33;;;;;;;20.89;66.07;98972.78;12191701;19;20011;-83
2022/06/20 01:11:27;;;;;;;11.05;3.30;;;;;;;20.85;66.47;98973.78;12220357;19;20007;-86
2022/06/20 01:15:40;;;;;;;13.20;3.67;;;;;;;20.80;66.33;98997.22;12181904;19;20035;-83
2022/06/20 01:19:51;;;;;;;14.65;4.53;;;;;;;20.76;65.95;99027.03;12205865;19;20764;-81
2022/06/20 01:24:26;;;;;;;10.57;3.42;;;;;;;20.73;65.86;99057.66;12205419;19;20006;-85
2022/06/20 01:28:32;;;;;;;7.30;3.20;;;;;;;20.71;65.63;99063.63;12182374;19;20466;-82
2022/06/20 01:32:34;;;;;;;12.48;2.92;;;;;;;20.76;65.27;99052.22;12202353;19;20027;-83
2022/06/20 01:49:48;;;;;;;8.98;3.17;;;;;;;20.80;63.87;99182.00;12190214;19;20027;-85
2022/06/20 01:53:52;;;;;;;5.43;2.42;;;;;;;20.74;62.79;99222.53;12205544;19;20034;-80
2022/06/20 01:58:04;;;;;;;6.00;2.78;;;;;;;20.70;62.46;99222.38;12184561;19;20015;-82
2022/06/20 02:02:06;;;;;;;6.18;2.67;;;;;;;20.69;61.78;99220.72;12204193;19;20594;-82
2022/06/20 02:06:12;;;;;;;4.82;2.38;;;;;;;20.58;62.11;99230.59;12204334;19;20007;-82
2022/06/20 02:10:19;;;;;;;9.70;3.33;;;;;;;20.57;62.23;99234.56;12184088;19;20867;-80
2022/06/20 02:14:26;;;;;;;7.32;2.95;;;;;;;20.54;62.41;99238.03;12207518;19;21443;-82
2022/06/20 02:18:32;;;;;;;8.45;3.00;;;;;;;20.51;62.32;99227.47;12204747;19;20030;-82
2022/06/20 02:22:38;;;;;;;6.22;2.75;;;;;;;20.47;63.34;99209.69;12184533;19;20011;-79
2022/06/20 02:26:45;;;;;;;4.78;2.40;;;;;;;20.48;63.43;99209.34;12205688;19;20007;-80
2022/06/20 02:30:46;;;;;;;7.43;3.10;;;;;;;20.50;63.18;99209.03;12177482;19;20011;-82
2022/06/20 02:34:48;;;;;;;6.57;3.53;;;;;;;20.44;63.46;99180.38;12192001;19;20011;-85
2022/06/20 02:38:52;;;;;;;10.73;3.30;;;;;;;20.38;63.71;99176.13;12202951;19;20010;-81
2022/06/20 02:43:04;;;;;;;9.65;2.75;;;;;;;20.25;63.89;99191.09;12181922;19;20078;-83
2022/06/20 02:47:09;;;;;;;5.20;3.10;;;;;;;20.26;63.01;99168.38;12189537;19;20011;-83
2022/06/20 02:51:17;;;;;;;;;;;;;;;20.21;63.09;99178.91;12196335;19;20505;-82
2022/06/20 02:55:19;;;;;;;14.30;3.75;;;;;;;20.18;63.72;99154.41;12181237;19;19915;-80
2022/06/20 02:59:36;;;;;;;8.48;3.30;;;;;;;20.09;63.86;99168.38;12202026;19;20003;-83
2022/06/20 03:03:46;;;;;;;12.30;3.40;;;;;;;20.08;64.15;99135.13;12177412;19;20007;-86
2022/06/20 03:07:49;;;;;;;5.43;2.90;;;;;;;19.98;63.81;99086.78;12204222;19;20023;-84
2022/06/20 03:11:54;;;;;;;7.13;3.35;;;;;;;19.91;63.96;99066.91;12214204;19;20018;-79
2022/06/20 03:15:57;;;;;;;5.30;3.13;;;;;;;19.80;63.47;99065.59;12198642;19;20066;-80
2022/06/20 03:20:04;;;;;;;8.20;3.00;;;;;;;19.80;63.51;99054.41;12221739;19;20678;-84
2022/06/20 03:24:06;;;;;;;8.85;2.50;;;;;;;19.79;63.70;99075.13;12212957;19;20027;-80
2022/06/20 03:28:13;;;;;;;11.82;2.88;;;;;;;19.73;63.85;99084.84;12193974;19;20111;-80
2022/06/20 03:32:34;;;;;;;9.45;2.83;;;;;;;19.71;63.26;99084.31;12217362;19;20007;-80
2022/06/20 03:36:39;;;;;;;7.45;2.45;;;;;;;19.66;63.40;99088.13;12194040;19;20034;-79
2022/06/20 03:40:42;;;;;;;11.82;3.00;;;;;;;19.58;63.92;99053.38;12220313;19;20056;-83
2022/06/20 03:44:55;;;;;;;10.30;3.30;;;;;;;19.53;64.03;99044.34;12213246;19;20668;-79
2022/06/20 03:49:24;;;;;;;9.48;3.08;;;;;;;19.44;64.28;99047.13;12184415;19;20010;-82
2022/06/20 03:53:33;;;;;;;6.93;2.65;;;;;;;19.33;64.83;99059.75;12217609;19;20010;-82
2022/06/20 03:58:38;;;;;;;9.38;2.38;;;;;;;19.36;64.56;99095.44;12185947;19;20022;-78
2022/06/20 04:03:12;;;;;;;6.93;2.60;;;;;;;19.40;64.20;99115.19;12206255;19;20374;-78
2022/06/20 04:07:23;;;;;;;8.60;2.95;;;;;;;19.45;64.08;99121.41;12182548;19;20460;-86
2022/06/20 04:11:36;;;;;;;6.93;2.95;;;;;;;19.50;64.10;99101.69;12259210;19;20007;-85
2022/06/20 04:15:47;;;;;;;9.63;2.70;;;;;;;19.45;64.27;99104.63;12195997;19;20028;-81
2022/06/20 04:19:52;;;;;;;6.60;2.75;;;;;;;19.59;63.79;99102.53;12199889;19;20014;-82
2022/06/20 04:24:16;;;;;;;3.60;2.38;;;;;;;19.65;63.75;99110.78;12210160;19;20947;-80
2022/06/20 04:28:38;;;;;;;4.53;2.10;;;;;;;19.70;63.23;99125.44;12184994;19;20011;-80
2022/06/20 04:32:51;;;;;;;10.05;2.50;;;;;;;19.80;63.42;99129.88;12210311;19;20106;-80
2022/06/20 04:36:58;;;;;;;9.70;2.53;;;;;;;19.87;63.21;99129.38;12184261;19;20015;-81
2022/06/20 04:41:09;;;;;;;9.50;2.70;;;;;;;19.89;63.10;99124.28;12208566;19;20011;-81
2022/06/20 04:45:18;;;;;;;8.77;2.38;;;;;;;19.95;63.24;99126.59;12204269;19;20019;-81
2022/06/20 04:49:20;;;;;;;8.00;3.03;;;;;;;19.87;64.05;99113.47;12180945;19;20011;-81
2022/06/20 04:53:28;;;;;;;7.53;2.30;;;;;;;20.06;63.67;99123.47;12215420;19;20027;-79
2022/06/20 04:57:33;;;;;;;10.95;2.30;;;;;;;20.07;62.98;99130.72;12197052;19;20082;-81
2022/06/20 05:01:36;;;;;;;6.55;2.55;;;;;;;20.06;63.49;99146.69;12206359;19;20058;-82
2022/06/20 05:05:41;;;;;;;4.72;2.10;;;;;;;20.17;63.24;99194.72;12209644;19;20067;-81
2022/06/20 05:09:51;;;;;;;6.60;2.33;;;;;;;20.20;62.69;99224.84;12184472;19;20014;-79
2022/06/20 05:14:03;;;;;;;5.43;2.25;;;;;;;20.22;62.53;99234.53;12202976;19;20043;-88
2022/06/20 05:18:16;;;;;;;7.63;2.50;;;;;;;20.30;62.36;99234.88;12214149;19;20035;-80
2022/06/20 05:22:24;;;;;;;11.30;2.45;;;;;;;20.42;61.67;99238.66;12188531;19;20115;-80
2022/06/20 05:26:32;;;;;;;6.07;2.40;;;;;;;20.46;61.43;99233.22;12215020;19;20014;-79
2022/06/20 05:30:35;;;;;;;6.00;2.40;;;;;;;20.56;60.99;99244.13;12192859;19;20468;-79
2022/06/20 05:34:58;;;;;;;6.13;2.47;;;;;;;20.55;61.36;99252.84;12210151;19;20081;-80
2022/06/20 05:39:31;;;;;;;9.15;2.72;;;;;;;20.59;60.74;99256.63;12208398;19;20021;-83
2022/06/20 05:43:35;;;;;;;7.97;2.65;;;;;;;20.53;61.07;99267.19;12182675;19;20015;-80
2022/06/20 05:47:38;;;;;;;9.73;2.58;;;;;;;20.38;61.35;99292.81;12195538;19;20459;-81
2022/06/20 05:51:41;;;;;;;;;;;;;;;20.33;61.53;99302.19;12187806;19;20025;-82
2022/06/20 05:55:47;;;;;;;6.75;2.15;;;;;;;20.32;61.21;99299.72;12202790;19;20377;-84
2022/06/20 05:59:53;;;;;;;8.23;3.28;;;;;;;20.27;61.63;99281.94;12202834;19;20018;-79
2022/06/20 06:04:13;;;;;;;7.88;2.15;;;;;;;20.25;61.51;99261.03;12181856;19;20915;-79
2022/06/20 06:08:24;;;;;;;6.57;2.65;;;;;;;20.18;61.61;99302.66;12195320;19;20006;-78
2022/06/20 06:12:54;;;;;;;10.18;2.78;;;;;;;20.12;61.83;99301.16;12179402;19;20024;-82
2022/06/20 06:17:05;;;;;;;7.75;2.85;;;;;;;20.19;62.16;99302.31;12193138;19;20018;-81
2022/06/20 06:21:27;;;;;;;4.88;2.20;;;;;;;20.16;62.12;99341.31;12193606;19;20078;-82
2022/06/20 06:25:34;;;;;;;8.90;4.15;;;;;;;20.09;62.76;99386.53;12189339;19;20018;-80
2022/06/20 06:29:55;;;;;;;9.63;3.40;;;;;;;20.01;65.26;99353.78;12205199;19;19999;-84
2022/06/20 07:23:29;;;;;;;8.68;3.88;;;;;;;20.17;85.82;99327.00;12222592;19;20472;-85
2022/06/20 07:27:41;;;;;;;8.45;4.43;;;;;;;20.43;86.72;99313.03;12212756;19;20002;-86
2022/06/20 07:31:49;;;;;;;10.38;4.32;;;;;;;20.42;85.89;99299.41;12213887;19;20014;-86
2022/06/20 07:35:55;;;;;;;6.45;3.40;;;;;;;20.21;85.00;99319.59;12242867;19;20039;-86
2022/06/20 07:40:24;;;;;;;8.95;4.85;;;;;;;20.16;87.05;99325.34;12199392;19;20018;-86
2022/06/20 07:49:06;;;;;;;8.63;4.15;;;;;;;20.19;87.04;99295.91;12195935;19;20018;-86
2022/06/20 07:53:51;;;;;;;9.57;5.25;;;;;;;20.32;88.51;99294.94;12223521;19;20416;-86
2022/06/20 07:58:07;;;;;;;12.55;5.28;;;;;;;20.45;89.33;99293.16;12200406;19;20038;-86
2022/06/20 08:02:23;;;;;;;8.52;4.35;;;;;;;20.70;87.06;99309.16;12223069;19;20014;-85
2022/06/20 08:07:13;;;;;;;9.32;4.97;;;;;;;20.89;86.44;99311.63;12216231;19;20364;-85
2022/06/20 08:11:42;;;;;;;9.07;4.70;;;;;;;20.94;85.57;99316.25;12218121;19;20007;-86
2022/06/20 08:16:03;;;;;;;10.05;4.97;;;;;;;20.72;88.27;99297.63;12191130;19;20027;-85
2022/06/20 08:20:06;;;;;;;9.98;5.05;;;;;;;20.79;88.61;99306.38;12214803;19;20018;-84
2022/06/20 08:24:17;;;;;;;11.85;4.97;;;;;;;21.02;85.95;99336.97;12218063;19;20757;-84
2022/06/20 08:28:28;;;;;;;10.13;4.35;;;;;;;21.39;83.63;99335.47;12190361;19;20082;-83
2022/06/20 08:32:40;;;;;;;7.72;4.90;;;;;;;21.80;80.57;99340.44;12208287;19;20348;-83
2022/06/20 08:37:14;;;;;;;9.80;4.93;;;;;;;22.17;77.05;99354.00;12195154;19;20011;-82
2022/06/20 08:42:02;;;;;;;8.45;4.50;;;;;;;22.53;75.67;99350.63;12215234;19;20010;-82
2022/06/20 08:46:32;;;;;;;9.82;4.35;;;;;;;22.40;75.33;99358.16;12185575;19;20031;-83
2022/06/20 08:51:07;;;;;;;7.88;4.10;;;;;;;22.44;76.26;99358.31;12214918;19;20015;-84
2022/06/20 08:55:45;;;;;;;9.05;4.03;;;;;;;22.43;74.05;99363.09;12202769;19;20014;-84
2022/06/20 09:00:00;;;;;;;10.93;4.82;;;;;;;22.15;74.81;99367.50;12212595;19;20011;-82
2022/06/20 09:04:42;;;;;;;11.32;4.90;;;;;;;21.77;77.00;99388.81;12185225;19;20496;-84
2022/06/20 09:24:04;;;;;;;9.75;5.03;;;;;;;19.97;87.55;99481.41;12215241;19;20022;-81
2022/06/20 09:28:53;;;;;;;6.70;3.63;;;;;;;19.71;88.01;99510.03;12236079;19;20015;-83
2022/06/20 09:39:19;;;;;;;5.00;2.50;;;;;;;19.12;87.77;99515.56;12219727;19;20037;-81
2022/06/20 09:44:30;;;;;;;3.97;2.42;;;;;;;19.22;87.79;99496.97;12182133;19;20034;-83
2022/06/20 09:55:32;;;;;;;3.05;1.60;;;;;;;20.20;82.16;99526.97;12238006;19;20011;-82
2022/06/20 10:00:06;;;;;;;3.15;1.50;;;;;;;19.99;81.34;99549.06;12111973;19;2004178;-83
2022/06/20 10:10:19;;;;;;;1.75;1.13;;;;;;;19.33;83.69;99565.41;12230626;19;20035;-81
2022/06/20 10:14:38;;;;;;;2.37;1.93;;;;;;;19.36;83.93;99561.97;12168932;19;20050;-83
2022/06/20 10:19:04;;;;;;;2.75;1.63;;;;;;;19.52;83.49;99574.47;12223305;19;20006;-83
2022/06/20 10:23:16;;;;;;;4.50;1.30;;;;;;;19.49;82.24;99569.50;12213167;19;20010;-82
2022/06/20 10:27:29;;;;;;;3.00;1.20;;;;;;;19.49;82.33;99574.28;12215198;19;20544;-82
2022/06/20 10:31:41;;;;;;;2.22;1.20;;;;;;;19.59;81.31;99580.44;12201126;19;20003;-81
2022/06/20 10:35:58;;;;;;;2.42;1.25;;;;;;;19.71;80.01;99587.47;12220050;19;20007;-82
2022/06/20 10:40:24;;;;;;;1.60;1.02;;;;;;;19.84;78.43;99591.34;12203246;19;20044;-84
2022/06/20 10:44:54;;;;;;;1.75;1.42;;;;;;;20.06;78.18;99580.19;12227980;19;20655;-84
2022/06/20 10:49:07;;;;;;;2.30;1.55;;;;;;;20.42;76.15;99568.06;12204107;19;20013;-84
2022/06/20 10:53:23;;;;;;;3.47;1.50;;;;;;;20.70;74.43;99591.09;12222207;19;20740;-82
2022/06/20 10:57:48;;;;;;;3.35;1.70;;;;;;;21.03;73.03;99594.38;12227619;19;20006;-85
2022/06/20 11:02:06;;;;;;;2.55;1.77;;;;;;;20.95;72.27;99589.56;12227743;19;20010;-84
2022/06/20 11:06:27;;;;;;;3.95;1.83;;;;;;;20.91;71.59;99585.72;12216506;19;20011;-86
2022/06/20 11:10:37;;;;;;;2.35;1.70;;;;;;;21.12;71.93;99580.38;12194574;19;20081;-85
2022/06/20 11:15:12;;;;;;;2.55;2.00;;;;;;;21.37;69.65;99590.03;12214295;19;20623;-86
2022/06/20 11:19:26;;;;;;;3.20;1.67;;;;;;;21.31;69.61;99594.91;12201552;19;20006;-84
2022/06/20 11:23:42;;;;;;;2.97;2.10;;;;;;;21.10;69.26;99607.91;12211771;19;20007;-85
2022/06/20 11:28:04;;;;;;;2.22;1.67;;;;;;;21.11;70.05;99617.94;12190295;19;20393;-83
2022/06/20 11:32:49;;;;;;;4.10;1.58;;;;;;;20.92;69.75;99618.22;12227408;19;20110;-82
2022/06/20 11:37:11;;;;;;;2.70;1.73;;;;;;;20.79;69.95;99625.59;12142877;19;20093;-84
2022/06/20 11:41:41;;;;;;;2.72;1.83;;;;;;;20.79;69.41;99649.94;12251945;19;20023;-87
2022/06/20 11:46:26;;;;;;;2.58;1.30;;;;;;;20.41;70.20;99651.19;12198358;19;20043;-86
2022/06/20 11:50:46;;;;;;;2.88;1.50;;;;;;;20.11;71.21;99663.97;12227150;19;20024;-87
2022/06/20 11:55:31;;;;;;;1.73;1.10;;;;;;;19.94;71.06;99664.66;12199548;19;20010;-85
2022/06/20 11:59:52;;;;;;;2.10;1.35;;;;;;;19.72;71.16;99671.03;12220341;19;20003;-85
2022/06/20 12:04:13;;;;;;;3.22;1.05;;;;;;;19.45;72.38;99669.06;12194360;19;20033;-85
2022/06/20 12:08:48;;;;;;;4.50;1.15;;;;;;;19.47;72.51;99675.19;12216978;19;20018;-85
2022/06/20 12:13:02;;;;;;;2.47;1.63;;;;;;;19.57;73.02;99660.16;12199274;19;20060;-85
2022/06/20 12:17:10;;;;;;;2.10;1.20;;;;;;;20.02;71.54;99666.69;12212606;19;20023;-85
2022/06/20 12:26:20;;;;;;;2.13;1.50;;;;;;;20.41;70.44;99683.94;12195251;19;20017;-85
2022/06/20 12:30:30;;;;;;;3.53;1.42;;;;;;;19.97;71.05;99666.81;12211874;19;20096;-85
2022/06/20 12:35:16;;;;;;;1.50;1.27;;;;;;;19.55;73.89;99677.25;12181099;19;20468;-86
2022/06/20 12:40:05;;;;;;;1.90;1.50;;;;;;;19.24;75.19;99682.63;12206699;19;20017;-87
2022/06/20 12:50:09;;;;;;;2.28;1.50;;;;;;;19.42;75.88;99680.88;12194899;19;20010;-85
2022/06/20 12:54:38;;;;;;;2.47;1.70;;;;;;;19.39;75.45;99697.44;12214356;19;20017;-86
2022/06/20 12:59:12;;;;;;;1.98;1.70;;;;;;;19.29;75.80;99704.06;12193845;19;20010;-86
2022/06/20 13:04:13;;;;;;;1.60;1.40;;;;;;;19.45;74.83;99702.59;12240213;19;20018;-84
2022/06/20 13:08:35;;;;;;;4.60;1.33;;;;;;;20.17;72.29;99706.66;12202213;19;20006;-86
2022/06/20 13:13:12;;;;;;;3.38;1.77;;;;;;;20.26;71.55;99713.13;12202316;19;20495;-83
2022/06/20 13:17:35;;;;;;;3.47;1.02;;;;;;;20.08;72.52;99722.50;12218686;19;20323;-86
2022/06/20 13:22:03;;;;;;;1.67;0.95;;;;;;;19.64;75.18;99738.81;12215681;19;20003;-86
2022/06/20 13:26:11;;;;;;;1.92;1.00;;;;;;;19.47;75.39;99744.22;12205957;19;20003;-85
2022/06/20 13:30:22;;;;;;;1.48;1.02;;;;;;;19.27;76.60;99737.06;12226760;19;20507;-85
2022/06/20 13:34:41;;;;;;;1.50;0.90;;;;;;;19.06;76.85;99728.25;12203614;19;20083;-87
2022/06/20 13:38:58;;;;;;;1.52;1.00;;;;;;;18.89;78.04;99732.47;12215053;19;20006;-87
2022/06/20 13:43:05;;;;;;;2.05;1.00;;;;;;;18.67;78.45;99743.44;12204934;19;20574;-86
2022/06/20 13:47:31;;;;;;;2.83;0.80;;;;;;;18.44;79.20;99748.00;12221639;19;20009;-86
2022/06/20 13:51:47;;;;;;;1.30;1.05;;;;;;;18.23;79.62;99741.91;12222042;19;20006;-86
2022/06/20 13:56:05;;;;;;;1.88;1.10;;;;;;;18.18;79.49;99748.41;12203292;19;20030;-85
2022/06/20 14:00:19;;;;;;;3.25;1.00;;;;;;;18.16;79.77;99747.88;12224748;19;20010;-85
2022/06/20 14:04:22;;;;;;;2.05;0.90;;;;;;;18.45;79.10;99746.88;12149515;19;20078;-84
2022/06/20 14:08:29;;;;;;;1.30;0.95;;;;;;;18.80;77.39;99742.69;12219965;19;20006;-85
2022/06/20 14:12:42;;;;;;;0.88;0.60;;;;;;;19.22;74.70;99742.78;12228925;19;20019;-85
2022/06/20 14:16:45;;;;;;;;;;;;;;;19.69;72.35;99737.91;12205044;19;20006;-87
2022/06/20 14:21:04;;;;;;;2.35;1.00;;;;;;;20.18;69.22;99744.66;12216166;19;19911;-86
2022/06/20 14:25:20;;;;;;;3.00;0.93;;;;;;;20.66;67.49;99730.91;12203333;19;20010;-88
2022/06/20 14:29:25;;;;;;;2.30;1.20;;;;;;;21.04;66.11;99736.06;12261289;19;20015;-86
2022/06/20 14:33:46;;;;;;;1.73;0.90;;;;;;;21.44;64.18;99727.69;12220535;19;20007;-88
2022/06/20 14:38:38;;;;;;;3.20;0.95;;;;;;;22.84;62.94;99715.41;12188086;19;20003;-87
2022/06/20 14:42:48;;;;;;;0.52;0.52;;;;;;;24.00;58.80;99725.53;12207607;19;20007;-87
2022/06/20 14:47:06;;;;;;;3.88;1.63;;;;;;;24.34;55.20;99721.63;12187408;19;20519;-85
2022/06/20 14:51:35;;;;;;;1.20;0.77;;;;;;;24.36;54.45;99715.63;12204593;19;20469;-84
2022/06/20 14:55:45;;;;;;;1.20;0.70;;;;;;;23.91;53.98;99721.13;12186648;19;20013;-85
2022/06/20 15:00:16;;;;;;;1.63;0.70;;;;;;;23.24;53.68;99711.53;12211598;19;20010;-86
2022/06/20 15:04:26;;;;;;;;;;;;;;;22.50;55.66;99714.34;12195581;19;20022;-90
2022/06/20 15:09:39;;;;;;;1.08;0.80;;;;;;;21.92;55.92;99710.03;12222673;19;19926;-87
2022/06/20 15:19:16;;;;;;;4.70;1.77;;;;;;;21.88;54.81;99711.00;12253200;19;20010;-87
2022/06/20 15:23:39;;;;;;;1.60;1.08;;;;;;;21.69;53.38;99709.31;12200464;19;20733;-86
2022/06/20 15:27:59;;;;;;;2.25;0.85;;;;;;;21.39;53.83;99711.88;12224122;19;20050;-87
2022/06/20 15:32:05;;;;;;;1.15;0.90;;;;;;;20.91;53.20;99715.41;12208826;19;20465;-86
2022/06/20 15:36:26;;;;;;;2.08;0.70;;;;;;;20.35;53.73;99710.41;12222546;19;20015;-91
2022/06/20 15:40:34;;;;;;;1.92;0.90;;;;;;;20.13;53.42;99716.78;12203701;19;20010;-86
2022/06/20 15:44:50;;;;;;;1.88;0.70;;;;;;;19.98;53.30;99713.19;12219732;19;20476;-87
2022/06/20 15:49:03;;;;;;;3.83;1.10;;;;;;;19.87;53.75;99720.19;12223398;19;19999;-87
2022/06/20 15:53:11;;;;;;;4.03;0.65;;;;;;;19.66;54.43;99721.75;12201443;19;20014;-87
2022/06/20 15:57:50;;;;;;;2.25;0.70;;;;;;;20.11;54.09;99733.06;12217382;19;20006;-84
2022/06/20 16:02:19;;;;;;;3.90;0.90;;;;;;;20.37;52.37;99728.50;12199087;19;20014;-85
2022/06/20 16:06:34;;;;;;;0.80;0.70;;;;;;;20.33;50.83;99727.50;12222021;19;20495;-84
2022/06/20 16:11:04;;;;;;;2.20;1.00;;;;;;;20.20;48.47;99722.78;12202290;19;20043;-89
2022/06/20 16:15:48;;;;;;;4.70;1.20;;;;;;;20.22;48.20;99721.31;12213416;19;20113;-85
2022/06/20 16:19:59;;;;;;;2.53;1.30;;;;;;;20.26;48.34;99721.53;12198915;19;20058;-86
2022/06/20 16:24:04;;;;;;;4.88;1.40;;;;;;;20.19;47.03;99719.16;12223814;19;20078;-84
2022/06/20 16:28:20;;;;;;;2.17;1.10;;;;;;;20.19;48.63;99724.75;12201462;19;20030;-86
2022/06/20 16:32:32;;;;;;;3.28;1.20;;;;;;;20.20;48.44;99729.22;12219288;19;20050;-85
2022/06/20 16:36:34;;;;;;;3.55;1.20;;;;;;;20.10;48.29;99725.81;12218399;19;20010;-87
2022/06/20 16:40:59;;;;;;;4.72;1.55;;;;;;;20.01;47.60;99737.75;12200843;19;20010;-85
2022/06/20 16:45:34;;;;;;;4.50;1.13;;;;;;;19.99;47.75;99742.84;12224311;19;20006;-87
2022/06/20 16:49:37;;;;;;;7.32;1.50;;;;;;;20.10;47.14;99751.00;12197025;19;20027;-85
2022/06/20 16:53:51;;;;;;;7.90;1.98;;;;;;;19.81;47.90;99743.81;12220307;19;20018;-85
2022/06/20 16:58:00;;;;;;;3.58;1.70;;;;;;;19.66;48.05;99739.38;12206891;19;20007;-85
2022/06/20 17:02:17;;;;;;;4.22;1.23;;;;;;;19.45;49.50;99744.50;12224272;19;20007;-81
2022/06/20 17:06:27;;;;;;;4.05;1.50;;;;;;;19.39;49.31;99751.34;12212619;19;20464;-84
2022/06/20 17:10:48;;;;;;;5.57;1.50;;;;;;;19.23;49.84;99733.25;12197653;19;20090;-83
2022/06/20 17:14:58;;;;;;;6.60;1.58;;;;;;;19.23;50.03;99733.25;12210890;19;20042;-83
2022/06/20 17:19:09;;;;;;;4.03;1.40;;;;;;;19.24;50.23;99729.31;12191335;19;20544;-83
2022/06/20 17:23:25;;;;;;;7.00;1.80;;;;;;;19.19;50.37;99730.25;12215689;19;20007;-84
2022/06/20 17:27:31;;;;;;;6.50;2.20;;;;;;;19.02;50.45;99733.63;12197423;19;20019;-85
2022/06/20 17:32:00;;;;;;;3.88;2.38;;;;;;;18.89;50.90;99735.28;12196938;19;20813;-84
2022/06/20 17:36:11;;;;;;;5.38;1.65;;;;;;;19.01;51.26;99739.53;12204209;19;20014;-85
2022/06/20 17:40:30;;;;;;;2.85;1.50;;;;;;;19.10;51.22;99740.47;12186276;19;20067;-83
2022/06/20 17:45:08;;;;;;;3.47;1.77;;;;;;;19.02;51.31;99744.81;12205091;19;20657;-85
2022/06/20 17:49:28;;;;;;;5.32;1.83;;;;;;;18.99;51.38;99739.84;12183837;19;20715;-85
2022/06/20 17:53:42;;;;;;;6.63;1.88;;;;;;;18.89;51.38;99734.44;12217700;19;20179;-87
2022/06/20 17:58:01;;;;;;;4.70;1.58;;;;;;;18.81;52.36;99730.38;12252834;19;20128;-87
2022/06/20 18:02:13;;;;;;;12.63;1.90;;;;;;;18.81;52.57;99733.19;12181321;19;20033;-84
2022/06/20 18:06:22;;;;;;;3.28;1.67;;;;;;;18.75;53.64;99736.38;12198020;19;20038;-85
2022/06/20 18:10:31;;;;;;;4.65;1.90;;;;;;;18.70;53.62;99740.03;12190260;19;20111;-85
2022/06/20 18:14:46;;;;;;;4.30;2.80;;;;;;;18.70;53.77;99744.78;12209393;19;20023;-84
2022/06/20 18:19:25;;;;;;;4.07;1.77;;;;;;;18.61;54.18;99739.91;12211097;19;20046;-83
2022/06/20 18:23:40;;;;;;;6.18;2.17;;;;;;;18.56;54.46;99748.38;12115616;19;2004292;-83
2022/06/20 18:28:05;;;;;;;5.00;1.77;;;;;;;18.53;54.62;99745.34;12231165;19;20344;-86
2022/06/20 18:32:18;;;;;;;6.63;2.53;;;;;;;18.64;54.49;99747.66;12205886;19;20018;-87
2022/06/20 18:36:27;;;;;;;5.60;1.90;;;;;;;18.56;55.88;99748.38;12226641;19;20007;-84
2022/06/20 18:40:30;;;;;;;5.47;1.70;;;;;;;18.44;55.82;99748.00;12223607;19;20014;-84
2022/06/20 18:44:42;;;;;;;3.13;1.77;;;;;;;18.31;56.88;99749.59;12243481;19;20006;-87
2022/06/20 18:49:04;;;;;;;3.92;2.00;;;;;;;18.18;57.46;99750.38;12243753;19;20010;-83
2022/06/20 18:53:08;;;;;;;5.35;1.90;;;;;;;18.05;58.14;99760.31;12233381;19;20006;-84
2022/06/20 18:57:44;;;;;;;4.57;1.88;;;;;;;17.91;58.95;99765.81;12245791;19;20042;-83
2022/06/20 19:02:08;;;;;;;5.28;2.10;;;;;;;17.75;59.74;99767.91;12220103;19;20358;-85
2022/06/20 19:06:22;;;;;;;5.38;2.45;;;;;;;17.55;60.75;99759.84;12244331;19;20019;-85
2022/06/20 19:10:47;;;;;;;6.68;2.20;;;;;;;17.34;62.17;99761.19;12215333;19;20544;-85
2022/06/20 19:14:55;;;;;;;5.07;1.95;;;;;;;17.11;62.93;99755.31;12238581;19;20018;-87
2022/06/20 19:19:22;;;;;;;4.70;2.45;;;;;;;16.92;64.14;99766.34;12221035;19;20014;-85
2022/06/20 19:23:45;;;;;;;5.95;2.40;;;;;;;16.73;64.86;99765.41;12240816;19;20011;-88
2022/06/20 19:27:58;;;;;;;3.30;2.08;;;;;;;16.54;65.44;99773.66;12244269;19;20007;-86
2022/06/20 19:32:07;;;;;;;5.88;2.55;;;;;;;16.37;65.79;99776.81;12234185;19;20017;-86
2022/06/20 19:36:14;;;;;;;5.05;2.10;;;;;;;16.21;66.40;99775.25;12240888;19;20476;-87
2022/06/20 19:40:34;;;;;;;3.13;2.20;;;;;;;16.06;67.76;99776.16;12215000;19;20006;-85
2022/06/20 19:44:42;;;;;;;5.05;2.20;;;;;;;15.87;67.95;99782.41;12227610;19;20305;-84
2022/06/20 19:48:45;;;;;;;5.45;2.20;;;;;;;15.75;68.41;99781.06;12235559;19;20013;-85
2022/06/20 19:52:59;;;;;;;5.35;2.47;;;;;;;15.59;69.25;99783.88;12200636;19;20026;-83
2022/06/20 19:57:16;;;;;;;4.85;2.50;;;;;;;15.47;69.84;99783.38;12226767;19;20011;-83
2022/06/20 20:01:20;;;;;;;3.28;2.15;;;;;;;15.36;70.15;99787.31;12199782;19;20388;-86
2022/06/20 20:05:22;;;;;;;4.50;2.17;;;;;;;15.22;71.17;99792.59;12227801;19;20010;-85
2022/06/20 20:09:24;;;;;;;3.00;1.98;;;;;;;15.13;71.48;99792.34;12235719;19;20013;-86
2022/06/20 20:13:30;;;;;;;5.85;2.20;;;;;;;15.07;71.60;99796.25;12196523;19;20007;-84
2022/06/20 20:17:33;;;;;;;5.97;2.78;;;;;;;15.00;72.20;99793.75;12226374;19;20019;-84
2022/06/20 20:22:15;;;;;;;5.95;2.47;;;;;;;14.91;73.37;99800.16;12221004;19;20025;-87
2022/06/20 20:26:21;;;;;;;4.20;2.42;;;;;;;14.84;73.31;99799.59;12209092;19;20017;-84
2022/06/20 20:30:42;;;;;;;10.25;3.10;;;;;;;14.77;73.50;99803.47;12228787;19;20044;-85
2022/06/20 20:34:50;;;;;;;5.13;2.70;;;;;;;14.74;73.56;99809.59;12206190;19;20010;-84
2022/06/20 20:39:21;;;;;;;3.85;2.28;;;;;;;14.73;74.07;99804.31;12219505;19;20002;-83
2022/06/20 20:43:28;;;;;;;4.25;2.55;;;;;;;14.69;74.33;99803.19;12203773;19;20010;-83
2022/06/20 20:47:35;;;;;;;4.68;2.30;;;;;;;14.65;74.88;99799.31;12230119;19;20011;-84
2022/06/20 20:51:38;;;;;;;6.78;2.72;;;;;;;14.62;74.76;99802.66;12236257;19;20705;-84
2022/06/20 20:55:43;;;;;;;5.25;3.08;;;;;;;14.59;75.06;99798.50;12212396;19;20014;-85
2022/06/20 21:00:02;;;;;;;3.80;2.40;;;;;;;14.52;75.90;99793.22;12225886;19;20003;-84
2022/06/20 21:04:12;;;;;;;4.50;2.22;;;;;;;14.49;75.84;99792.91;12204473;19;20017;-85
2022/06/20 21:08:19;;;;;;;8.52;2.85;;;;;;;14.43;76.03;99794.84;12228839;19;20014;-82
2022/06/20 21:12:30;;;;;;;4.75;3.10;;;;;;;14.37;76.26;99798.72;12230430;19;20171;-84
2022/06/20 21:16:40;;;;;;;6.60;2.75;;;;;;;14.32;76.67;99804.25;12199006;19;20487;-83
2022/06/20 21:21:02;;;;;;;4.07;2.50;;;;;;;14.29;76.61;99800.09;12245956;19;20464;-85
2022/06/20 21:25:04;;;;;;;6.07;2.70;;;;;;;14.27;76.75;99796.75;12214080;19;20010;-84
2022/06/20 21:29:12;;;;;;;4.10;2.53;;;;;;;14.23;76.95;99800.34;12233071;19;20014;-84
2022/06/20 21:33:20;;;;;;;5.20;2.63;;;;;;;14.20;77.04;99792.59;12233875;19;20018;-84
2022/06/20 21:37:26;;;;;;;5.90;2.77;;;;;;;14.19;77.11;99794.53;12207673;19;20007;-82
2022/06/20 21:41:48;;;;;;;5.03;2.80;;;;;;;14.17;77.88;99788.44;12232700;19;20831;-82
2022/06/20 21:45:53;;;;;;;5.03;2.85;;;;;;;14.13;77.32;99788.16;12233850;19;20015;-83